Silas, Alabama
Current Conditions -  °F | °C
As of 4:58 PM on Saturday 20 Dec 2014 (Local Time) from KMEI Reporting Station
Clear Clear  
Wind Chill: 45°   Ceiling: Unl
Heat Index: 49°   Visibility: 10mi
Dew Point: 40°   Wind: 8mph
Humidity: 71%   Direction: 360°N
Pressure: 30.17"   Gusts: NA
Location:  31.77°N, 88.33°W
Report Text: KMEI 202258Z 36007KT 10SM CLR 09/04 A3017 RMK AO2 SLP215 T00940044
Loading
Personal Weather Stations






























Interactive Weather Map New forecast layout! Learn more

10-Day Weather Forecast

Advertisements
Track Severe Weather on mobile